Time;durP1;ratioP1;P1;durP2;ratioP2;P2;SDS_P1;SDS_P2;PMS_P1;PMS_P2;Temp;Humidity;BMP_temperature;BMP_pressure;BME280_temperature;BME280_humidity;BME280_pressure;Samples;Min_cycle;Max_cycle;Signal;HPM_P1;HPM_P2
2022/01/08 00:01:57;;;;;;;6.83;3.90;;;1.80;99.90;;;;;;5074965;28;20181;-82
2022/01/08 00:04:26;;;;;;;7.00;5.13;;;1.70;99.90;;;;;;5075907;28;20175;-82
2022/01/08 00:06:51;;;;;;;7.70;3.20;;;1.70;99.90;;;;;;5075893;28;20583;-82
2022/01/08 00:09:16;;;;;;;7.23;3.97;;;1.70;99.90;;;;;;5075771;28;20468;-82
2022/01/08 00:11:42;;;;;;;7.27;4.30;;;1.80;99.90;;;;;;5075713;28;20268;-84
2022/01/08 00:14:10;;;;;;;6.57;4.23;;;1.90;99.90;;;;;;5075510;28;20180;-84
2022/01/08 00:16:37;;;;;;;7.63;3.33;;;2.00;99.90;;;;;;5075697;28;20522;-84
2022/01/08 00:19:04;;;;;;;6.60;3.67;;;2.00;99.90;;;;;;5075582;28;20958;-83
2022/01/08 00:21:30;;;;;;;10.40;3.60;;;2.00;99.90;;;;;;5075330;28;20423;-84
2022/01/08 00:23:55;;;;;;;6.07;3.40;;;2.00;99.90;;;;;;5075595;28;20426;-83
2022/01/08 00:26:21;;;;;;;6.00;3.83;;;2.10;99.90;;;;;;5075402;28;20546;-84
2022/01/08 00:28:46;;;;;;;5.03;3.80;;;2.10;99.90;;;;;;5075502;28;20247;-84
2022/01/08 00:31:12;;;;;;;7.00;3.73;;;2.10;99.90;;;;;;5074981;28;20184;-83
2022/01/08 00:33:38;;;;;;;8.03;2.90;;;2.00;99.90;;;;;;5075389;28;20169;-83
2022/01/08 00:36:05;;;;;;;6.67;3.90;;;2.00;99.90;;;;;;5075347;28;20260;-83
2022/01/08 00:38:31;;;;;;;5.77;2.90;;;1.90;99.90;;;;;;5075124;28;20447;-83
2022/01/08 00:40:56;;;;;;;7.40;4.40;;;2.00;99.90;;;;;;5073948;28;20854;-82
2022/01/08 00:43:22;;;;;;;6.50;4.17;;;2.00;99.90;;;;;;5075214;28;20169;-83
2022/01/08 00:45:47;;;;;;;4.57;3.17;;;2.00;99.90;;;;;;5073477;28;20222;-83
2022/01/08 00:48:13;;;;;;;5.73;4.00;;;2.00;99.90;;;;;;5075143;28;20165;-83
2022/01/08 00:50:38;;;;;;;6.53;2.97;;;2.00;99.90;;;;;;5075078;28;20562;-83
2022/01/08 00:53:04;;;;;;;7.33;4.10;;;2.00;99.90;;;;;;5074979;28;20189;-84
2022/01/08 00:55:30;;;;;;;5.63;3.03;;;1.90;99.90;;;;;;5074809;28;20179;-84
2022/01/08 00:57:55;;;;;;;6.30;3.93;;;2.00;99.90;;;;;;5074866;28;20184;-83
2022/01/08 01:00:21;;;;;;;5.50;3.80;;;2.00;99.90;;;;;;5074354;28;20689;-84
2022/01/08 01:02:46;;;;;;;8.00;4.40;;;2.00;99.90;;;;;;5074677;28;20184;-83
2022/01/08 01:05:12;;;;;;;7.40;4.13;;;2.00;99.90;;;;;;5074633;28;20263;-83
2022/01/08 01:07:40;;;;;;;6.80;4.23;;;2.00;99.90;;;;;;5074603;28;20637;-83
2022/01/08 01:10:07;;;;;;;6.53;3.60;;;1.90;99.90;;;;;;5074462;28;20183;-83
2022/01/08 01:12:33;;;;;;;8.27;5.47;;;1.90;99.90;;;;;;5074087;28;20774;-84
2022/01/08 01:14:58;;;;;;;5.30;4.20;;;2.00;99.90;;;;;;5074052;28;20419;-84
2022/01/08 01:17:24;;;;;;;7.07;4.90;;;2.00;99.90;;;;;;5073308;28;20197;-83
2022/01/08 01:19:52;;;;;;;7.53;4.13;;;1.90;99.90;;;;;;5074423;28;20673;-83
2022/01/08 01:22:21;;;;;;;5.87;3.80;;;1.90;99.90;;;;;;5074106;28;20746;-83
2022/01/08 01:24:48;;;;;;;8.33;4.60;;;1.90;99.90;;;;;;5074327;28;20421;-83
2022/01/08 01:30:06;;;;;;;5.90;4.73;;;1.90;99.90;;;;;;5074207;28;20398;-83
2022/01/08 01:47:00;;;;;;;7.50;5.50;;;2.00;99.90;;;;;;5074175;28;20410;-84
2022/01/08 01:48:50;;;;;;;4.90;4.40;;;2.00;99.90;;;;;;5073873;28;20427;-83
2022/01/08 01:51:21;;;;;;;7.60;4.07;;;2.10;99.90;;;;;;5073768;28;20502;-84
2022/01/08 01:53:47;;;;;;;4.70;3.50;;;2.10;99.90;;;;;;5073777;28;20851;-84
2022/01/08 01:56:16;;;;;;;5.93;3.90;;;2.10;99.90;;;;;;5073609;28;20632;-84
2022/01/08 01:58:42;;;;;;;5.17;3.50;;;2.10;99.90;;;;;;5073509;28;20502;-84
2022/01/08 02:01:10;;;;;;;6.27;3.57;;;2.20;99.90;;;;;;5073219;28;20526;-83
2022/01/08 02:03:36;;;;;;;7.30;3.77;;;2.10;99.90;;;;;;5073541;28;20169;-83
2022/01/08 02:06:02;;;;;;;6.37;4.60;;;2.20;99.90;;;;;;5073534;28;20777;-83
2022/01/08 02:08:29;;;;;;;8.57;4.00;;;2.10;99.90;;;;;;5073411;28;20177;-84
2022/01/08 02:10:54;;;;;;;7.93;4.20;;;2.20;99.90;;;;;;5073350;28;20403;-84
2022/01/08 02:13:25;;;;;;;8.20;3.43;;;2.20;99.90;;;;;;5072065;28;20929;-84
2022/01/08 02:15:53;;;;;;;4.60;3.80;;;2.20;99.90;;;;;;5071823;28;20177;-84
2022/01/08 02:18:23;;;;;;;6.67;4.67;;;2.20;99.90;;;;;;5073217;28;20480;-84
2022/01/08 02:20:49;;;;;;;5.03;3.30;;;2.20;99.90;;;;;;5071774;28;20554;-83
2022/01/08 02:23:15;;;;;;;8.67;4.20;;;2.20;99.90;;;;;;5072141;28;20459;-84
2022/01/08 02:25:40;;;;;;;7.87;5.37;;;2.20;99.90;;;;;;5072635;28;21317;-85
2022/01/08 02:28:10;;;;;;;8.20;5.33;;;2.20;99.90;;;;;;5071744;28;20981;-84
2022/01/08 02:30:35;;;;;;;7.87;5.57;;;2.30;99.90;;;;;;5072493;28;20168;-84
2022/01/08 02:33:01;;;;;;;9.70;5.97;;;2.30;99.90;;;;;;5072884;28;20774;-83
2022/01/08 02:35:26;;;;;;;11.00;6.53;;;2.30;99.90;;;;;;5072762;28;20209;-83
2022/01/08 02:37:53;;;;;;;10.30;6.90;;;2.20;99.90;;;;;;5072781;28;20165;-83
2022/01/08 02:40:20;;;;;;;9.27;6.30;;;2.30;99.90;;;;;;5072607;28;20889;-83
2022/01/08 02:42:52;;;;;;;8.23;5.83;;;2.30;99.90;;;;;;5072611;28;20430;-83
2022/01/08 02:45:38;;;;;;;9.63;6.60;;;2.30;99.90;;;;;;5072097;28;20476;-83
2022/01/08 02:48:04;;;;;;;9.60;6.07;;;2.20;99.90;;;;;;5071038;28;20416;-83
2022/01/08 02:50:29;;;;;;;10.70;6.90;;;2.30;99.90;;;;;;5071304;28;20842;-83
2022/01/08 02:52:55;;;;;;;17.13;7.80;;;2.20;99.90;;;;;;5072502;28;20502;-81
2022/01/08 02:55:21;;;;;;;8.93;6.47;;;2.20;99.90;;;;;;5072555;28;20252;-82
2022/01/08 02:57:47;;;;;;;8.53;6.23;;;2.20;99.90;;;;;;5071541;28;20181;-81
2022/01/08 03:00:17;;;;;;;11.40;8.17;;;2.30;99.90;;;;;;5072343;28;20549;-80
2022/01/08 03:02:45;;;;;;;9.63;7.37;;;2.20;99.90;;;;;;5072662;28;20416;-82
2022/01/08 03:05:12;;;;;;;10.83;7.53;;;2.20;99.90;;;;;;5072743;28;20434;-82
2022/01/08 03:07:39;;;;;;;12.50;7.53;;;2.20;99.90;;;;;;5072600;28;20412;-81
2022/01/08 03:10:10;;;;;;;11.90;8.80;;;2.20;99.90;;;;;;5072657;28;20473;-81
2022/01/08 03:12:43;;;;;;;12.20;7.37;;;2.20;99.90;;;;;;5072768;28;20551;-81
2022/01/08 03:15:15;;;;;;;12.97;7.60;;;2.20;99.90;;;;;;5071052;28;20419;-81
2022/01/08 03:17:42;;;;;;;14.80;8.23;;;2.20;99.90;;;;;;5072679;28;20419;-81
2022/01/08 03:20:11;;;;;;;9.80;7.70;;;2.20;99.90;;;;;;5072440;28;20474;-81
2022/01/08 03:22:38;;;;;;;16.00;9.13;;;2.20;99.90;;;;;;5072280;28;20974;-81
2022/01/08 03:25:05;;;;;;;13.37;8.10;;;2.10;99.90;;;;;;5072472;28;20422;-80
2022/01/08 03:27:35;;;;;;;12.33;7.57;;;2.10;99.90;;;;;;5072472;28;20533;-80
2022/01/08 03:30:03;;;;;;;12.87;7.03;;;2.20;99.90;;;;;;5071984;28;20774;-81
2022/01/08 03:32:28;;;;;;;10.60;6.90;;;2.20;99.90;;;;;;5072493;28;20406;-80
2022/01/08 03:34:56;;;;;;;12.77;7.20;;;2.20;99.90;;;;;;5073653;28;20903;-81
2022/01/08 03:37:22;;;;;;;13.67;7.30;;;2.20;99.90;;;;;;5076384;28;20161;-80
2022/01/08 03:39:48;;;;;;;12.17;7.80;;;2.20;99.90;;;;;;5076250;28;20473;-80
2022/01/08 03:42:19;;;;;;;13.43;8.23;;;2.20;99.90;;;;;;5076242;28;20650;-81
2022/01/08 03:44:44;;;;;;;9.47;7.23;;;2.20;99.90;;;;;;5074624;28;20211;-81
2022/01/08 03:47:29;;;;;;;10.60;7.63;;;2.10;99.90;;;;;;5075762;28;20451;-80
2022/01/08 03:49:59;;;;;;;9.30;6.60;;;2.20;99.90;;;;;;5089163;28;20182;-81
2022/01/08 03:52:26;;;;;;;11.67;7.97;;;2.20;99.90;;;;;;5075870;28;20400;-80
2022/01/08 03:54:52;;;;;;;13.43;8.90;;;2.20;99.90;;;;;;5074583;28;20415;-81
2022/01/08 03:57:18;;;;;;;13.87;10.10;;;2.20;99.90;;;;;;5075713;28;20992;-81
2022/01/08 03:59:43;;;;;;;17.63;10.83;;;2.20;99.90;;;;;;5075227;28;20208;-82
2022/01/08 04:02:09;;;;;;;12.93;8.13;;;2.20;99.90;;;;;;5075723;28;20176;-81
2022/01/08 04:04:34;;;;;;;15.30;9.67;;;2.20;99.90;;;;;;5075718;28;20231;-80
2022/01/08 04:07:02;;;;;;;19.07;10.60;;;2.20;99.90;;;;;;5075653;28;20572;-82
2022/01/08 04:09:28;;;;;;;14.40;8.70;;;2.20;99.90;;;;;;5075654;28;20169;-83
2022/01/08 04:11:55;;;;;;;16.23;8.17;;;2.20;99.90;;;;;;5074163;28;20416;-82
2022/01/08 04:14:21;;;;;;;15.00;8.83;;;2.20;99.90;;;;;;5075211;28;20164;-80
2022/01/08 04:16:50;;;;;;;14.63;8.77;;;2.20;99.90;;;;;;5075636;28;20945;-80
2022/01/08 04:19:16;;;;;;;17.40;9.07;;;2.20;99.90;;;;;;5075456;28;20240;-81
2022/01/08 04:22:09;;;;;;;12.23;9.50;;;2.20;99.90;;;;;;5075379;28;20486;-81
2022/01/08 04:24:34;;;;;;;14.07;8.93;;;2.20;99.90;;;;;;5075509;28;20410;-81
2022/01/08 04:27:00;;;;;;;13.33;8.93;;;2.20;99.90;;;;;;5073963;28;20502;-80
2022/01/08 04:29:25;;;;;;;15.03;10.13;;;2.20;99.90;;;;;;5075097;28;20498;-81
2022/01/08 04:31:51;;;;;;;19.00;11.13;;;2.20;99.90;;;;;;5075347;28;20166;-81
2022/01/08 04:34:19;;;;;;;14.63;8.67;;;2.20;99.90;;;;;;5075369;28;20496;-80
2022/01/08 04:36:45;;;;;;;15.60;9.33;;;2.20;99.90;;;;;;5075271;28;20697;-81
2022/01/08 04:39:13;;;;;;;12.87;9.43;;;2.20;99.90;;;;;;5075105;28;20576;-81
2022/01/08 04:41:43;;;;;;;17.83;11.10;;;2.30;99.90;;;;;;5073847;28;20176;-81
2022/01/08 04:44:09;;;;;;;18.30;10.43;;;2.20;99.90;;;;;;5074823;28;20773;-80
2022/01/08 04:46:34;;;;;;;17.73;8.87;;;2.20;99.90;;;;;;5074457;28;20564;-80
2022/01/08 04:49:00;;;;;;;15.17;10.57;;;2.20;99.90;;;;;;5075081;28;20494;-81
2022/01/08 04:51:25;;;;;;;14.57;10.13;;;2.20;99.90;;;;;;5073685;28;20175;-82
2022/01/08 04:53:51;;;;;;;16.47;10.33;;;2.20;99.90;;;;;;5073842;28;20173;-80
2022/01/08 04:56:17;;;;;;;17.73;10.50;;;2.30;99.90;;;;;;5074854;28;20196;-80
2022/01/08 04:58:42;;;;;;;17.47;9.63;;;2.30;99.90;;;;;;5074411;28;20195;-80
2022/01/08 05:01:16;;;;;;;21.43;12.40;;;2.20;99.90;;;;;;5074832;28;20604;-81
2022/01/08 05:03:42;;;;;;;18.17;11.00;;;2.30;99.90;;;;;;5073470;28;20180;-81
2022/01/08 05:06:10;;;;;;;23.37;10.67;;;2.30;99.90;;;;;;5074781;28;20423;-80
2022/01/08 05:08:36;;;;;;;17.90;11.13;;;2.30;99.90;;;;;;5074652;28;20172;-81
2022/01/08 05:11:02;;;;;;;23.60;12.27;;;2.30;99.90;;;;;;5074736;28;20490;-82
2022/01/08 05:13:28;;;;;;;22.30;11.93;;;2.30;99.90;;;;;;5074322;28;20173;-80
2022/01/08 05:15:54;;;;;;;20.23;11.53;;;2.30;99.90;;;;;;5074622;28;20473;-81
2022/01/08 05:18:19;;;;;;;22.73;13.00;;;2.30;99.90;;;;;;5074505;28;20714;-80
2022/01/08 05:20:54;;;;;;;21.70;12.83;;;2.30;99.90;;;;;;5074495;28;20204;-81
2022/01/08 05:23:20;;;;;;;21.60;12.13;;;2.30;99.90;;;;;;5074447;28;20688;-81
2022/01/08 05:25:46;;;;;;;21.53;12.90;;;2.30;99.90;;;;;;5074402;28;20462;-81
2022/01/08 05:28:11;;;;;;;19.93;11.27;;;2.30;99.90;;;;;;5073872;28;20164;-80
2022/01/08 05:30:37;;;;;;;18.60;11.93;;;2.30;99.90;;;;;;5074271;28;20509;-82
2022/01/08 05:33:02;;;;;;;21.80;12.07;;;2.30;99.90;;;;;;5074192;28;20263;-82
2022/01/08 05:35:29;;;;;;;21.10;11.83;;;2.30;99.90;;;;;;5072897;28;20177;-81
2022/01/08 05:37:55;;;;;;;22.73;10.60;;;2.30;99.90;;;;;;5074219;28;20502;-82
2022/01/08 05:40:24;;;;;;;21.73;13.20;;;2.40;99.90;;;;;;5073988;28;20550;-82
2022/01/08 05:42:50;;;;;;;15.67;10.60;;;2.30;99.90;;;;;;5072867;28;20773;-82
2022/01/08 05:45:16;;;;;;;20.40;10.87;;;2.40;99.90;;;;;;5073650;28;20407;-82
2022/01/08 05:47:41;;;;;;;26.87;10.73;;;2.40;99.90;;;;;;5074003;28;20179;-81
2022/01/08 05:50:08;;;;;;;17.43;11.70;;;2.40;99.90;;;;;;5073941;28;20176;-82
2022/01/08 05:52:34;;;;;;;20.37;12.00;;;2.30;99.90;;;;;;5073838;28;20301;-83
2022/01/08 05:54:59;;;;;;;21.50;11.80;;;2.40;99.90;;;;;;5072611;28;20448;-82
2022/01/08 05:57:25;;;;;;;17.63;10.77;;;2.30;99.90;;;;;;5073479;28;20173;-82
2022/01/08 05:59:50;;;;;;;23.67;10.03;;;2.30;99.90;;;;;;5072506;28;20209;-82
2022/01/08 06:02:16;;;;;;;15.20;10.90;;;2.40;99.90;;;;;;5073485;28;20177;-82
2022/01/08 06:04:41;;;;;;;19.40;11.73;;;2.40;99.90;;;;;;5089357;28;20177;-82
2022/01/08 06:07:13;;;;;;;19.03;9.90;;;2.40;99.90;;;;;;5073631;28;20169;-81
2022/01/08 06:09:41;;;;;;;15.03;8.90;;;2.30;99.90;;;;;;5073558;28;20169;-81
2022/01/08 06:12:08;;;;;;;19.77;11.07;;;2.40;99.90;;;;;;5073159;28;20423;-81
2022/01/08 06:14:33;;;;;;;17.50;11.30;;;2.40;99.90;;;;;;5073003;28;20560;-81
2022/01/08 06:17:02;;;;;;;17.90;11.00;;;2.40;99.90;;;;;;5073434;28;20415;-82
2022/01/08 06:19:27;;;;;;;20.00;13.90;;;2.40;99.90;;;;;;5073277;28;20283;-82
2022/01/08 06:21:53;;;;;;;23.00;11.13;;;2.40;99.90;;;;;;5073255;28;20535;-82
2022/01/08 06:24:18;;;;;;;17.90;10.57;;;2.40;99.90;;;;;;5089022;28;20546;-82
2022/01/08 06:26:44;;;;;;;18.97;11.40;;;2.50;99.90;;;;;;5073284;28;20169;-82
2022/01/08 06:29:09;;;;;;;20.40;10.07;;;2.50;99.90;;;;;;5072972;28;20649;-82
2022/01/08 06:31:35;;;;;;;19.40;10.17;;;2.40;99.90;;;;;;5073156;28;20177;-82
2022/01/08 06:34:00;;;;;;;20.80;10.53;;;2.40;99.90;;;;;;5073313;28;20165;-82
2022/01/08 06:36:29;;;;;;;15.33;10.93;;;2.50;99.90;;;;;;5073323;28;20243;-81
2022/01/08 06:38:54;;;;;;;19.00;11.93;;;2.50;99.90;;;;;;5072982;28;20687;-81
2022/01/08 06:41:20;;;;;;;18.47;10.30;;;2.50;99.90;;;;;;5072904;28;20496;-81
2022/01/08 06:43:46;;;;;;;13.03;9.37;;;2.40;99.90;;;;;;5072619;28;20251;-81
2022/01/08 06:46:12;;;;;;;16.50;10.43;;;2.40;99.90;;;;;;5073026;28;20940;-83
2022/01/08 06:48:38;;;;;;;18.77;10.17;;;2.40;99.90;;;;;;5073062;28;20169;-81
2022/01/08 06:51:04;;;;;;;13.90;8.20;;;2.50;99.90;;;;;;5072995;28;20407;-81
2022/01/08 06:53:29;;;;;;;20.47;10.10;;;2.50;99.90;;;;;;5072937;28;20161;-81
2022/01/08 06:55:55;;;;;;;18.30;10.83;;;2.50;99.90;;;;;;5071585;28;20175;-80
2022/01/08 06:58:21;;;;;;;16.37;9.57;;;2.50;99.90;;;;;;5072666;28;20310;-80
2022/01/08 07:00:47;;;;;;;19.70;9.00;;;2.50;99.90;;;;;;5072882;28;20289;-82
2022/01/08 07:03:14;;;;;;;15.33;8.97;;;2.50;99.90;;;;;;5072793;28;20692;-80
2022/01/08 07:05:39;;;;;;;16.53;9.73;;;2.50;99.90;;;;;;5072877;28;20425;-80
2022/01/08 07:08:06;;;;;;;12.97;8.30;;;2.50;99.90;;;;;;5072868;28;20845;-79
2022/01/08 07:10:32;;;;;;;17.20;8.97;;;2.50;99.90;;;;;;5073937;28;20433;-80
2022/01/08 07:12:57;;;;;;;20.17;9.20;;;2.50;99.90;;;;;;5075331;28;20505;-79
2022/01/08 07:15:23;;;;;;;15.30;10.37;;;2.50;99.90;;;;;;5076884;28;20528;-79
2022/01/08 07:17:49;;;;;;;17.13;10.60;;;2.50;99.90;;;;;;5076907;28;20175;-81
2022/01/08 07:20:14;;;;;;;15.00;10.00;;;2.50;99.90;;;;;;5076611;28;20206;-80
2022/01/08 07:22:40;;;;;;;21.73;12.10;;;2.50;99.90;;;;;;5076536;28;20273;-80
2022/01/08 07:25:07;;;;;;;23.03;11.57;;;2.50;99.90;;;;;;5076606;28;20212;-80
2022/01/08 07:27:33;;;;;;;17.80;10.27;;;2.50;99.90;;;;;;5076588;28;20175;-80
2022/01/08 07:30:04;;;;;;;17.47;10.17;;;2.60;99.90;;;;;;5076207;28;20420;-81
2022/01/08 07:32:30;;;;;;;21.77;10.80;;;2.50;99.90;;;;;;5076555;28;20415;-81
2022/01/08 07:34:56;;;;;;;18.23;11.10;;;2.50;99.90;;;;;;5076279;28;20492;-81
2022/01/08 07:37:21;;;;;;;19.50;10.93;;;2.60;99.90;;;;;;5076297;28;20172;-81
2022/01/08 07:39:47;;;;;;;19.30;12.13;;;2.60;99.90;;;;;;5076151;28;20413;-81
2022/01/08 07:42:12;;;;;;;20.83;11.87;;;2.50;99.90;;;;;;5076325;28;20302;-82
2022/01/08 07:44:39;;;;;;;18.60;10.20;;;2.60;99.90;;;;;;5075887;28;20172;-82
2022/01/08 07:47:05;;;;;;;19.20;9.70;;;2.50;99.90;;;;;;5076175;28;20162;-81
2022/01/08 07:49:31;;;;;;;18.63;10.70;;;2.60;99.90;;;;;;5076220;28;20416;-81
2022/01/08 07:51:56;;;;;;;21.93;12.83;;;2.60;99.90;;;;;;5076153;28;20411;-79
2022/01/08 07:54:22;;;;;;;23.17;12.13;;;2.60;99.90;;;;;;5074730;28;20165;-80
2022/01/08 07:56:47;;;;;;;23.07;10.60;;;2.60;99.90;;;;;;5076037;28;20219;-80
2022/01/08 07:59:13;;;;;;;22.97;11.70;;;2.60;99.90;;;;;;5075469;28;20213;-83
2022/01/08 08:01:38;;;;;;;19.93;10.67;;;2.60;99.90;;;;;;5075948;28;20226;-80
2022/01/08 08:04:04;;;;;;;21.50;10.47;;;2.60;99.90;;;;;;5075922;28;20576;-80
2022/01/08 08:06:32;;;;;;;18.20;9.53;;;2.60;99.90;;;;;;5075807;28;20177;-80
2022/01/08 08:08:57;;;;;;;18.67;10.67;;;2.60;99.90;;;;;;5075750;28;20184;-80
2022/01/08 08:11:23;;;;;;;16.30;11.10;;;2.60;99.90;;;;;;5091361;28;20495;-81
2022/01/08 08:13:48;;;;;;;17.83;10.53;;;2.60;99.90;;;;;;5091080;28;20208;-82
2022/01/08 08:16:14;;;;;;;16.90;10.67;;;2.70;99.90;;;;;;5075689;28;20173;-82
2022/01/08 08:18:39;;;;;;;16.63;10.00;;;2.70;99.90;;;;;;5091263;28;20164;-82
2022/01/08 08:21:05;;;;;;;16.07;9.80;;;2.70;99.90;;;;;;5074616;28;20188;-82
2022/01/08 08:23:30;;;;;;;18.90;10.07;;;2.60;99.90;;;;;;5075303;28;20587;-82
2022/01/08 08:25:56;;;;;;;17.10;11.40;;;2.70;99.90;;;;;;5075655;28;20226;-80
2022/01/08 08:28:21;;;;;;;15.63;8.67;;;2.70;99.90;;;;;;5075150;28;20266;-82
2022/01/08 08:30:47;;;;;;;19.60;11.17;;;2.70;99.90;;;;;;5075562;28;20164;-85
2022/01/08 08:33:12;;;;;;;17.90;9.57;;;2.70;99.90;;;;;;5075512;28;20508;-86
2022/01/08 08:35:38;;;;;;;20.60;10.27;;;2.60;99.90;;;;;;5075465;28;20505;-83
2022/01/08 08:38:04;;;;;;;22.20;10.20;;;2.60;99.90;;;;;;5075270;28;20168;-86
2022/01/08 08:40:30;;;;;;;18.83;12.20;;;2.70;99.90;;;;;;5090739;28;20266;-82
2022/01/08 08:42:56;;;;;;;13.60;9.23;;;2.70;99.90;;;;;;5074786;28;20511;-83
2022/01/08 08:45:22;;;;;;;15.37;8.57;;;2.70;99.90;;;;;;5075240;28;20418;-82
2022/01/08 08:47:50;;;;;;;19.50;11.23;;;2.70;99.90;;;;;;5075125;28;20521;-82
2022/01/08 08:50:18;;;;;;;19.77;9.53;;;2.70;99.90;;;;;;5075087;28;20842;-83
2022/01/08 08:52:44;;;;;;;20.27;12.27;;;2.70;99.90;;;;;;5075052;28;20403;-83
2022/01/08 08:55:11;;;;;;;18.10;11.00;;;2.70;99.90;;;;;;5073910;28;20560;-83
2022/01/08 08:57:37;;;;;;;17.23;11.63;;;2.70;99.90;;;;;;5073478;28;20228;-82
2022/01/08 09:00:04;;;;;;;20.60;12.17;;;2.70;99.90;;;;;;5074181;28;20496;-81
2022/01/08 09:02:29;;;;;;;21.07;10.50;;;2.70;99.90;;;;;;5074217;28;20476;-83
2022/01/08 09:04:55;;;;;;;21.03;11.90;;;2.70;99.90;;;;;;5074201;28;20415;-83
2022/01/08 09:07:20;;;;;;;21.00;12.10;;;2.70;99.90;;;;;;5089557;28;20173;-83
2022/01/08 09:09:46;;;;;;;15.13;9.33;;;2.80;99.90;;;;;;5072634;28;20181;-83
2022/01/08 09:12:15;;;;;;;15.63;10.50;;;2.80;99.90;;;;;;5074008;28;20187;-83
2022/01/08 09:14:42;;;;;;;18.23;11.37;;;2.90;99.90;;;;;;5074186;28;20173;-83
2022/01/08 09:17:08;;;;;;;14.97;9.87;;;2.80;99.90;;;;;;5074692;28;20455;-83
2022/01/08 09:19:34;;;;;;;20.97;10.20;;;2.70;99.90;;;;;;5074336;28;20981;-83
2022/01/08 09:22:01;;;;;;;15.07;9.73;;;2.70;99.90;;;;;;5074266;28;20712;-83
2022/01/08 09:24:27;;;;;;;18.60;9.57;;;2.80;99.90;;;;;;5074471;28;20582;-83
2022/01/08 09:26:53;;;;;;;16.67;9.00;;;2.90;99.90;;;;;;5074299;28;20424;-83
2022/01/08 09:29:18;;;;;;;15.63;9.50;;;3.10;99.90;;;;;;5073876;28;20419;-82
2022/01/08 09:31:44;;;;;;;15.10;9.10;;;3.10;99.90;;;;;;5072978;28;20174;-81
2022/01/08 09:34:10;;;;;;;15.80;9.30;;;3.10;99.90;;;;;;5073925;28;20632;-83
2022/01/08 09:36:38;;;;;;;16.67;10.33;;;3.10;99.90;;;;;;5074146;28;20252;-83
2022/01/08 09:39:05;;;;;;;17.00;9.83;;;3.10;99.90;;;;;;5073940;28;20311;-83
2022/01/08 09:41:30;;;;;;;17.27;9.60;;;3.30;99.90;;;;;;5074037;28;20415;-83
2022/01/08 09:43:56;;;;;;;16.40;9.20;;;3.30;99.90;;;;;;5073501;28;20762;-83
2022/01/08 09:46:21;;;;;;;18.07;10.07;;;3.30;99.90;;;;;;5073893;28;20181;-83
2022/01/08 09:48:48;;;;;;;17.73;8.87;;;3.70;99.90;;;;;;5073800;28;20633;-83
2022/01/08 09:51:15;;;;;;;16.80;10.30;;;3.40;99.90;;;;;;5073695;28;20169;-80
2022/01/08 09:53:42;;;;;;;16.10;9.70;;;3.40;99.90;;;;;;5073827;28;20407;-83
2022/01/08 09:56:09;;;;;;;18.50;10.43;;;3.20;99.90;;;;;;5073845;28;20416;-81
2022/01/08 09:58:37;;;;;;;14.30;7.70;;;3.30;99.90;;;;;;5073258;28;20906;-82
2022/01/08 10:01:30;;;;;;;15.87;10.23;;;3.30;99.90;;;;;;5074494;28;20507;-81
2022/01/08 10:03:58;;;;;;;14.40;10.13;;;3.30;99.90;;;;;;5073802;28;20499;-81
2022/01/08 10:06:26;;;;;;;17.50;10.80;;;3.50;99.90;;;;;;5077416;28;20435;-80
2022/01/08 10:08:52;;;;;;;16.10;10.90;;;3.40;99.90;;;;;;5078217;28;20421;-81
2022/01/08 10:11:19;;;;;;;18.90;10.10;;;3.50;99.90;;;;;;5073343;28;20407;-81
2022/01/08 10:13:47;;;;;;;20.23;9.93;;;4.20;99.90;;;;;;5073054;28;20483;-80
2022/01/08 10:19:00;;;;;;;9.73;7.83;;;4.70;99.90;;;;;;5073700;28;20451;-81
2022/01/08 10:21:37;;;;;;;14.83;9.47;;;4.90;99.90;;;;;;5073025;28;20416;-81
2022/01/08 10:24:06;;;;;;;13.50;8.90;;;4.60;99.90;;;;;;5073210;28;20409;-82
2022/01/08 10:26:35;;;;;;;17.00;9.27;;;4.40;99.90;;;;;;5071917;28;20439;-82
2022/01/08 10:29:12;;;;;;;18.43;9.13;;;4.30;99.90;;;;;;5072731;28;20429;-82
2022/01/08 10:31:43;;;;;;;12.60;8.53;;;4.40;99.90;;;;;;5073269;28;20408;-81
2022/01/08 10:34:15;;;;;;;15.53;9.23;;;4.70;99.90;;;;;;5072023;28;20415;-82
2022/01/08 10:36:43;;;;;;;19.83;9.47;;;5.00;99.90;;;;;;5073315;28;20422;-81
2022/01/08 10:39:18;;;;;;;13.30;7.13;;;5.00;99.90;;;;;;5073194;28;20783;-81
2022/01/08 10:41:46;;;;;;;14.00;10.27;;;5.10;99.90;;;;;;5073134;28;20418;-82
2022/01/08 10:44:19;;;;;;;11.77;9.07;;;5.20;99.90;;;;;;5072105;28;20419;-81
2022/01/08 10:46:51;;;;;;;9.30;7.57;;;5.60;99.90;;;;;;5073051;28;20430;-82
2022/01/08 10:49:17;;;;;;;13.10;7.53;;;5.60;99.90;;;;;;5071816;28;20416;-81
2022/01/08 10:51:43;;;;;;;13.57;6.63;;;6.10;99.90;;;;;;5073099;28;20410;-81
2022/01/08 10:54:14;;;;;;;12.10;6.50;;;7.00;99.90;;;;;;5072991;28;20530;-82
2022/01/08 10:56:49;;;;;;;12.80;7.00;;;7.00;99.90;;;;;;5073093;28;20610;-81
2022/01/08 10:59:23;;;;;;;10.73;5.63;;;7.00;99.90;;;;;;5072431;28;20468;-82
2022/01/08 11:02:02;;;;;;;8.83;5.37;;;7.00;99.90;;;;;;5088300;28;20992;-81
2022/01/08 11:04:37;;;;;;;9.07;5.60;;;6.80;99.90;;;;;;5072981;28;20469;-82
2022/01/08 11:07:17;;;;;;;10.10;5.93;;;6.90;99.90;;;;;;5072809;28;20410;-82
2022/01/08 11:09:47;;;;;;;9.33;6.13;;;7.20;99.90;;;;;;5072904;28;20417;-82
2022/01/08 11:12:17;;;;;;;9.80;5.50;;;7.40;99.90;;;;;;5072368;28;20445;-81
2022/01/08 11:17:21;;;;;;;8.87;5.90;;;8.00;99.90;;;;;;5072967;28;20506;-82
2022/01/08 11:19:53;;;;;;;9.87;4.63;;;8.00;99.90;;;;;;5072715;28;20471;-82
2022/01/08 11:22:22;;;;;;;8.97;5.30;;;7.70;99.90;;;;;;5088141;28;20580;-82
2022/01/08 11:24:52;;;;;;;8.87;5.07;;;8.20;99.90;;;;;;5072673;28;20455;-82
2022/01/08 11:27:24;;;;;;;7.20;5.07;;;8.60;99.90;;;;;;5072399;28;20502;-82
2022/01/08 11:29:57;;;;;;;6.10;5.33;;;9.00;99.90;;;;;;5072588;28;20424;-83
2022/01/08 11:32:28;;;;;;;8.73;6.60;;;8.30;99.90;;;;;;5072597;28;20418;-82
2022/01/08 11:34:54;;;;;;;8.20;6.00;;;7.80;99.90;;;;;;5072549;28;20410;-82
2022/01/08 11:37:22;;;;;;;11.53;6.20;;;7.10;99.90;;;;;;5072555;28;20777;-82
2022/01/08 11:39:50;;;;;;;7.90;6.27;;;7.00;99.90;;;;;;5072247;28;20472;-82
2022/01/08 11:42:19;;;;;;;8.63;5.53;;;7.20;99.90;;;;;;5071991;28;20423;-82
2022/01/08 11:44:45;;;;;;;6.80;5.87;;;7.10;99.90;;;;;;5071687;28;20434;-82
2022/01/08 11:47:11;;;;;;;8.73;6.17;;;7.50;99.90;;;;;;5072232;28;20427;-82
2022/01/08 11:49:40;;;;;;;8.80;6.17;;;8.00;99.90;;;;;;5071779;28;20948;-83
2022/01/08 11:52:23;;;;;;;5.20;4.10;;;8.80;99.90;;;;;;5071996;28;20409;-82
2022/01/08 11:54:50;;;;;;;5.47;4.57;;;8.40;99.90;;;;;;5071888;28;20455;-82
2022/01/08 11:57:20;;;;;;;6.60;4.40;;;8.30;99.90;;;;;;5074826;28;20764;-83
2022/01/08 11:59:46;;;;;;;8.33;5.43;;;8.50;99.90;;;;;;5075530;28;20508;-82
2022/01/08 12:02:14;;;;;;;8.07;5.90;;;8.30;99.90;;;;;;5075801;28;20425;-82
2022/01/08 12:04:42;;;;;;;9.07;5.47;;;8.70;99.90;;;;;;5075608;28;20456;-83
2022/01/08 12:07:37;;;;;;;5.47;4.60;;;8.60;99.90;;;;;;5075624;28;20413;-82
2022/01/08 12:10:25;;;;;;;8.10;4.87;;;9.00;99.90;;;;;;5074085;28;20541;-83
2022/01/08 12:13:03;;;;;;;6.70;4.70;;;9.70;99.90;;;;;;5075193;28;20737;-83
2022/01/08 12:15:41;;;;;;;6.43;4.57;;;10.20;99.90;;;;;;5075058;28;20483;-83
2022/01/08 12:18:07;;;;;;;8.70;6.80;;;9.80;99.90;;;;;;5074833;28;20439;-83
2022/01/08 12:20:42;;;;;;;7.03;5.30;;;8.80;99.90;;;;;;5075309;28;21008;-82
2022/01/08 12:23:34;;;;;;;10.93;5.97;;;8.30;99.90;;;;;;5075231;28;20552;-83
2022/01/08 12:26:20;;;;;;;9.37;4.83;;;8.00;99.90;;;;;;5075122;28;20427;-81
2022/01/08 12:28:56;;;;;;;8.47;6.20;;;7.70;99.90;;;;;;5070892;28;20468;-83
2022/01/08 12:31:44;;;;;;;9.30;4.83;;;7.30;99.90;;;;;;5074641;28;20458;-83
2022/01/08 12:34:29;;;;;;;8.20;5.97;;;6.80;99.90;;;;;;5075116;28;20499;-82
2022/01/08 12:36:56;;;;;;;9.83;5.37;;;6.50;99.90;;;;;;5074073;28;20991;-82
2022/01/08 12:39:48;;;;;;;8.90;6.17;;;7.10;99.90;;;;;;5075021;28;20462;-83
2022/01/08 12:42:19;;;;;;;5.33;4.30;;;7.50;99.90;;;;;;5074742;28;20853;-83
2022/01/08 12:45:04;;;;;;;9.53;5.43;;;7.90;99.90;;;;;;5075233;28;20411;-83
2022/01/08 12:47:56;;;;;;;7.90;4.83;;;7.60;99.90;;;;;;5074810;28;20423;-82
2022/01/08 12:50:30;;;;;;;7.33;4.60;;;7.10;99.90;;;;;;5075014;28;20427;-82
2022/01/08 12:53:07;;;;;;;6.03;5.10;;;6.90;99.90;;;;;;5074960;28;20433;-82
2022/01/08 12:55:57;;;;;;;5.83;3.40;;;6.40;99.90;;;;;;5074769;28;20451;-82
2022/01/08 12:58:29;;;;;;;9.10;4.20;;;6.60;99.90;;;;;;5074575;28;20410;-82
2022/01/08 13:01:03;;;;;;;4.73;3.70;;;6.50;99.90;;;;;;5074670;28;20497;-82
2022/01/08 13:03:40;;;;;;;8.50;5.90;;;6.30;99.90;;;;;;5074804;28;20824;-82
2022/01/08 13:06:12;;;;;;;9.57;5.63;;;6.00;99.90;;;;;;5074766;28;20420;-82
2022/01/08 13:08:39;;;;;;;9.97;4.73;;;5.90;99.90;;;;;;5074088;28;20439;-82
2022/01/08 13:11:07;;;;;;;6.57;5.07;;;5.80;99.90;;;;;;5074636;28;20449;-82
2022/01/08 13:13:45;;;;;;;8.77;5.57;;;5.80;99.90;;;;;;5074180;28;20413;-83
2022/01/08 13:16:13;;;;;;;7.67;4.70;;;5.70;99.90;;;;;;5074455;28;20417;-82